sensor_id;sensor_type;location;lat;lon;timestamp;pressure;altitude;pressure_sealevel;temperature;humidity
32324;BME280;25666;44.350;9.222;2024-01-07T08:20:00;99845.63;;;11.82;100.00
32324;BME280;25666;44.350;9.222;2024-01-07T08:22:26;99850.13;;;11.90;100.00
32324;BME280;25666;44.350;9.222;2024-01-07T08:24:53;99849.38;;;11.93;100.00
32324;BME280;25666;44.350;9.222;2024-01-07T08:27:19;99849.59;;;11.81;100.00
32324;BME280;25666;44.350;9.222;2024-01-07T08:29:45;99857.72;;;11.93;100.00
32324;BME280;25666;44.350;9.222;2024-01-07T08:32:10;99865.59;;;11.88;100.00
32324;BME280;25666;44.350;9.222;2024-01-07T08:34:39;99850.50;;;11.89;100.00
32324;BME280;25666;44.350;9.222;2024-01-07T08:37:07;99869.88;;;11.78;100.00
32324;BME280;25666;44.350;9.222;2024-01-07T08:39:32;99864.03;;;11.87;100.00
32324;BME280;25666;44.350;9.222;2024-01-07T08:41:58;99873.16;;;11.84;100.00
32324;BME280;25666;44.350;9.222;2024-01-07T08:44:24;99886.78;;;11.92;100.00
32324;BME280;25666;44.350;9.222;2024-01-07T08:46:50;99879.59;;;11.91;100.00
32324;BME280;25666;44.350;9.222;2024-01-07T08:49:15;99886.94;;;12.03;100.00
32324;BME280;25666;44.350;9.222;2024-01-07T08:51:41;99875.63;;;11.92;100.00
32324;BME280;25666;44.350;9.222;2024-01-07T08:54:06;99882.53;;;12.02;100.00
32324;BME280;25666;44.350;9.222;2024-01-07T08:56:32;99883.69;;;12.01;100.00
32324;BME280;25666;44.350;9.222;2024-01-07T08:58:57;99886.56;;;12.08;100.00
32324;BME280;25666;44.350;9.222;2024-01-07T09:01:24;99888.66;;;12.14;100.00
32324;BME280;25666;44.350;9.222;2024-01-07T09:03:50;99888.19;;;12.09;100.00
32324;BME280;25666;44.350;9.222;2024-01-07T09:06:15;99892.25;;;12.15;100.00
32324;BME280;25666;44.350;9.222;2024-01-07T09:08:41;99887.88;;;12.17;100.00
32324;BME280;25666;44.350;9.222;2024-01-07T09:11:08;99897.47;;;12.20;100.00
32324;BME280;25666;44.350;9.222;2024-01-07T09:13:37;99901.44;;;12.19;100.00
32324;BME280;25666;44.350;9.222;2024-01-07T09:16:02;99893.91;;;12.23;100.00
32324;BME280;25666;44.350;9.222;2024-01-07T09:18:28;99898.78;;;12.29;100.00
32324;BME280;25666;44.350;9.222;2024-01-07T09:20:53;99892.88;;;12.38;100.00
32324;BME280;25666;44.350;9.222;2024-01-07T09:23:19;99898.78;;;12.29;100.00
32324;BME280;25666;44.350;9.222;2024-01-07T09:25:44;99898.63;;;12.52;100.00
32324;BME280;25666;44.350;9.222;2024-01-07T09:28:11;99902.22;;;12.53;100.00
32324;BME280;25666;44.350;9.222;2024-01-07T09:30:38;99907.41;;;12.54;100.00
32324;BME280;25666;44.350;9.222;2024-01-07T09:33:04;99905.00;;;12.56;100.00
32324;BME280;25666;44.350;9.222;2024-01-07T09:35:29;99901.72;;;12.47;100.00
32324;BME280;25666;44.350;9.222;2024-01-07T09:37:55;99905.81;;;12.57;100.00
32324;BME280;25666;44.350;9.222;2024-01-07T09:40:21;99907.75;;;12.49;100.00
32324;BME280;25666;44.350;9.222;2024-01-07T09:42:46;99914.16;;;12.50;100.00
32324;BME280;25666;44.350;9.222;2024-01-07T09:45:13;99927.75;;;12.55;100.00
32324;BME280;25666;44.350;9.222;2024-01-07T09:47:44;99905.00;;;12.56;100.00
32324;BME280;25666;44.350;9.222;2024-01-07T09:50:10;99909.81;;;12.59;100.00
32324;BME280;25666;44.350;9.222;2024-01-07T09:52:38;99907.88;;;12.63;100.00
32324;BME280;25666;44.350;9.222;2024-01-07T09:55:05;99913.50;;;12.67;100.00
32324;BME280;25666;44.350;9.222;2024-01-07T09:57:34;99911.06;;;12.62;100.00
32324;BME280;25666;44.350;9.222;2024-01-07T10:00:01;99895.91;;;12.63;100.00
32324;BME280;25666;44.350;9.222;2024-01-07T10:02:27;99901.13;;;12.64;100.00
32324;BME280;25666;44.350;9.222;2024-01-07T10:04:52;99893.97;;;12.67;100.00
32324;BME280;25666;44.350;9.222;2024-01-07T10:07:18;99891.50;;;12.58;100.00
32324;BME280;25666;44.350;9.222;2024-01-07T10:09:44;99894.78;;;12.67;100.00
32324;BME280;25666;44.350;9.222;2024-01-07T10:12:09;99899.44;;;12.56;100.00
32324;BME280;25666;44.350;9.222;2024-01-07T10:14:38;99900.72;;;12.62;100.00
32324;BME280;25666;44.350;9.222;2024-01-07T10:17:14;99895.44;;;12.54;100.00
32324;BME280;25666;44.350;9.222;2024-01-07T10:19:43;99899.44;;;12.53;100.00
32324;BME280;25666;44.350;9.222;2024-01-07T10:22:12;99916.66;;;12.62;100.00
32324;BME280;25666;44.350;9.222;2024-01-07T10:24:39;99900.63;;;12.55;100.00
32324;BME280;25666;44.350;9.222;2024-01-07T10:27:06;99902.75;;;12.69;100.00
32324;BME280;25666;44.350;9.222;2024-01-07T10:29:32;99904.31;;;12.66;100.00
32324;BME280;25666;44.350;9.222;2024-01-07T10:31:58;99901.31;;;12.85;100.00
32324;BME280;25666;44.350;9.222;2024-01-07T10:34:24;99891.28;;;13.28;100.00
32324;BME280;25666;44.350;9.222;2024-01-07T10:36:52;99893.41;;;12.95;100.00
32324;BME280;25666;44.350;9.222;2024-01-07T10:39:19;99889.75;;;12.90;100.00
32324;BME280;25666;44.350;9.222;2024-01-07T10:41:46;99897.66;;;12.81;100.00
32324;BME280;25666;44.350;9.222;2024-01-07T10:44:13;99889.56;;;13.13;100.00
32324;BME280;25666;44.350;9.222;2024-01-07T10:46:39;99895.16;;;13.13;100.00
32324;BME280;25666;44.350;9.222;2024-01-07T10:49:15;99894.03;;;13.18;100.00
32324;BME280;25666;44.350;9.222;2024-01-07T10:52:07;99890.00;;;13.19;100.00
32324;BME280;25666;44.350;9.222;2024-01-07T10:54:34;99891.28;;;13.28;100.00
32324;BME280;25666;44.350;9.222;2024-01-07T10:57:26;99890.88;;;13.26;100.00
32324;BME280;25666;44.350;9.222;2024-01-07T10:59:53;99889.56;;;13.13;100.00
32324;BME280;25666;44.350;9.222;2024-01-07T11:02:20;99893.78;;;13.40;100.00
32324;BME280;25666;44.350;9.222;2024-01-07T11:04:54;99885.50;;;13.07;100.00
32324;BME280;25666;44.350;9.222;2024-01-07T11:07:40;99907.34;;;12.91;100.00
32324;BME280;25666;44.350;9.222;2024-01-07T11:10:26;99890.84;;;12.75;100.00
32324;BME280;25666;44.350;9.222;2024-01-07T11:12:56;99883.44;;;12.94;100.00
32324;BME280;25666;44.350;9.222;2024-01-07T11:18:19;99877.31;;;12.77;100.00
32324;BME280;25666;44.350;9.222;2024-01-07T11:20:45;99876.81;;;13.12;100.00
32324;BME280;25666;44.350;9.222;2024-01-07T11:26:06;99865.66;;;13.19;100.00
32324;BME280;25666;44.350;9.222;2024-01-07T11:28:49;99866.75;;;13.08;100.00
32324;BME280;25666;44.350;9.222;2024-01-07T11:31:20;99856.56;;;13.29;100.00
32324;BME280;25666;44.350;9.222;2024-01-07T11:33:48;99872.94;;;13.34;100.00
32324;BME280;25666;44.350;9.222;2024-01-07T11:36:18;99864.97;;;13.33;100.00
32324;BME280;25666;44.350;9.222;2024-01-07T11:38:50;99853.78;;;13.33;100.00
32324;BME280;25666;44.350;9.222;2024-01-07T11:41:16;99868.84;;;13.14;100.00
32324;BME280;25666;44.350;9.222;2024-01-07T11:43:57;99873.53;;;13.07;100.00
32324;BME280;25666;44.350;9.222;2024-01-07T11:46:26;99857.28;;;13.19;100.00
32324;BME280;25666;44.350;9.222;2024-01-07T11:48:54;99854.25;;;12.91;100.00
32324;BME280;25666;44.350;9.222;2024-01-07T11:51:30;99859.28;;;13.15;100.00
32324;BME280;25666;44.350;9.222;2024-01-07T11:54:00;99859.81;;;12.87;100.00
32324;BME280;25666;44.350;9.222;2024-01-07T11:56:27;99856.75;;;13.03;100.00
32324;BME280;25666;44.350;9.222;2024-01-07T11:58:53;99857.88;;;12.95;100.00
32324;BME280;25666;44.350;9.222;2024-01-07T12:01:19;99859.22;;;13.08;100.00
32324;BME280;25666;44.350;9.222;2024-01-07T12:03:48;99863.44;;;12.92;100.00
32324;BME280;25666;44.350;9.222;2024-01-07T12:06:15;99860.72;;;12.99;100.00
32324;BME280;25666;44.350;9.222;2024-01-07T12:08:42;99866.47;;;12.72;100.00
32324;BME280;25666;44.350;9.222;2024-01-07T12:11:09;99874.84;;;12.72;100.00
32324;BME280;25666;44.350;9.222;2024-01-07T12:13:36;99851.78;;;12.79;100.00
32324;BME280;25666;44.350;9.222;2024-01-07T12:16:02;99867.34;;;12.80;100.00
32324;BME280;25666;44.350;9.222;2024-01-07T12:18:29;99861.84;;;12.90;100.00
32324;BME280;25666;44.350;9.222;2024-01-07T12:20:58;99865.78;;;12.82;100.00
32324;BME280;25666;44.350;9.222;2024-01-07T12:23:25;99860.72;;;12.99;100.00
32324;BME280;25666;44.350;9.222;2024-01-07T12:25:54;99864.63;;;12.90;100.00
32324;BME280;25666;44.350;9.222;2024-01-07T12:28:21;99851.94;;;13.00;100.00
32324;BME280;25666;44.350;9.222;2024-01-07T12:30:50;99869.06;;;12.95;100.00
32324;BME280;25666;44.350;9.222;2024-01-07T12:33:17;99867.91;;;13.00;100.00
32324;BME280;25666;44.350;9.222;2024-01-07T12:35:47;99846.47;;;12.63;100.00
32324;BME280;25666;44.350;9.222;2024-01-07T12:38:13;99847.00;;;12.79;100.00
32324;BME280;25666;44.350;9.222;2024-01-07T12:40:39;99864.19;;;12.85;100.00
32324;BME280;25666;44.350;9.222;2024-01-07T12:43:05;99863.72;;;12.76;100.00
32324;BME280;25666;44.350;9.222;2024-01-07T12:45:33;99865.38;;;12.80;100.00
32324;BME280;25666;44.350;9.222;2024-01-07T12:47:58;99878.13;;;12.81;100.00
32324;BME280;25666;44.350;9.222;2024-01-07T12:50:27;99890.44;;;12.73;100.00
32324;BME280;25666;44.350;9.222;2024-01-07T12:52:55;99863.78;;;12.83;100.00
32324;BME280;25666;44.350;9.222;2024-01-07T12:55:25;99870.16;;;12.80;100.00
32324;BME280;25666;44.350;9.222;2024-01-07T12:57:55;99863.47;;;12.95;100.00
32324;BME280;25666;44.350;9.222;2024-01-07T13:00:22;99870.59;;;12.85;100.00
32324;BME280;25666;44.350;9.222;2024-01-07T13:02:48;99856.13;;;12.73;100.00
32324;BME280;25666;44.350;9.222;2024-01-07T13:05:14;99861.28;;;12.71;100.00
32324;BME280;25666;44.350;9.222;2024-01-07T13:07:39;99868.97;;;12.81;100.00
32324;BME280;25666;44.350;9.222;2024-01-07T13:10:05;99871.25;;;12.72;100.00
32324;BME280;25666;44.350;9.222;2024-01-07T13:12:31;99872.91;;;12.76;100.00
32324;BME280;25666;44.350;9.222;2024-01-07T13:14:57;99871.28;;;12.75;100.00
32324;BME280;25666;44.350;9.222;2024-01-07T13:17:23;99880.50;;;12.79;100.00
32324;BME280;25666;44.350;9.222;2024-01-07T13:19:48;99871.72;;;12.77;100.00
32324;BME280;25666;44.350;9.222;2024-01-07T13:22:14;99864.50;;;12.73;100.00
32324;BME280;25666;44.350;9.222;2024-01-07T13:24:40;99872.50;;;12.74;100.00
32324;BME280;25666;44.350;9.222;2024-01-07T13:27:06;99876.84;;;12.72;100.00
32324;BME280;25666;44.350;9.222;2024-01-07T13:29:33;99877.28;;;12.74;100.00
32324;BME280;25666;44.350;9.222;2024-01-07T13:31:59;99886.34;;;12.64;100.00
32324;BME280;25666;44.350;9.222;2024-01-07T13:34:25;99891.09;;;12.60;100.00
32324;BME280;25666;44.350;9.222;2024-01-07T13:36:50;99906.63;;;12.57;100.00
32324;BME280;25666;44.350;9.222;2024-01-07T13:39:17;99898.72;;;12.66;100.00
32324;BME280;25666;44.350;9.222;2024-01-07T13:41:43;99908.28;;;12.62;100.00
32324;BME280;25666;44.350;9.222;2024-01-07T13:44:09;99903.59;;;12.73;100.00
32324;BME280;25666;44.350;9.222;2024-01-07T13:46:46;99911.75;;;12.52;100.00
32324;BME280;25666;44.350;9.222;2024-01-07T13:49:15;99910.19;;;12.54;100.00
32324;BME280;25666;44.350;9.222;2024-01-07T13:51:43;99926.22;;;12.61;100.00
32324;BME280;25666;44.350;9.222;2024-01-07T13:54:09;99919.84;;;12.64;100.00
32324;BME280;25666;44.350;9.222;2024-01-07T13:56:43;99924.34;;;12.75;100.00
32324;BME280;25666;44.350;9.222;2024-01-07T13:59:10;99923.50;;;12.68;100.00
32324;BME280;25666;44.350;9.222;2024-01-07T14:01:36;99928.72;;;12.73;100.00
32324;BME280;25666;44.350;9.222;2024-01-07T14:04:02;99923.41;;;12.61;100.00
32324;BME280;25666;44.350;9.222;2024-01-07T14:06:28;99928.47;;;12.48;100.00
32324;BME280;25666;44.350;9.222;2024-01-07T14:08:53;99936.31;;;12.35;100.00
32324;BME280;25666;44.350;9.222;2024-01-07T14:11:20;99928.47;;;12.48;100.00
32324;BME280;25666;44.350;9.222;2024-01-07T14:13:46;99932.44;;;12.47;100.00
32324;BME280;25666;44.350;9.222;2024-01-07T14:16:15;99944.44;;;12.51;100.00
32324;BME280;25666;44.350;9.222;2024-01-07T14:18:40;99937.13;;;12.36;100.00
32324;BME280;25666;44.350;9.222;2024-01-07T14:21:09;99950.31;;;12.39;100.00
32324;BME280;25666;44.350;9.222;2024-01-07T14:23:35;99949.44;;;12.35;100.00
32324;BME280;25666;44.350;9.222;2024-01-07T14:26:01;99950.66;;;12.38;100.00
32324;BME280;25666;44.350;9.222;2024-01-07T14:28:26;99959.19;;;12.15;100.00
32324;BME280;25666;44.350;9.222;2024-01-07T14:30:52;99956.00;;;12.16;100.00
32324;BME280;25666;44.350;9.222;2024-01-07T14:33:17;99956.97;;;12.27;100.00
32324;BME280;25666;44.350;9.222;2024-01-07T14:35:43;99962.28;;;12.40;100.00
32324;BME280;25666;44.350;9.222;2024-01-07T14:38:09;99963.66;;;12.23;100.00
32324;BME280;25666;44.350;9.222;2024-01-07T14:40:38;99961.28;;;12.21;100.00
32324;BME280;25666;44.350;9.222;2024-01-07T14:43:06;99968.03;;;12.20;100.00
32324;BME280;25666;44.350;9.222;2024-01-07T14:45:32;99973.97;;;12.19;100.00
32324;BME280;25666;44.350;9.222;2024-01-07T14:47:57;99975.97;;;12.18;100.00
32324;BME280;25666;44.350;9.222;2024-01-07T14:50:23;99962.44;;;12.20;100.00
32324;BME280;25666;44.350;9.222;2024-01-07T14:52:48;99981.50;;;12.15;100.00
32324;BME280;25666;44.350;9.222;2024-01-07T14:55:14;99983.53;;;12.18;100.00
32324;BME280;25666;44.350;9.222;2024-01-07T14:57:41;99984.63;;;12.10;100.00
32324;BME280;25666;44.350;9.222;2024-01-07T15:00:07;99983.16;;;12.19;100.00
32324;BME280;25666;44.350;9.222;2024-01-07T15:02:33;99983.09;;;12.16;100.00
32324;BME280;25666;44.350;9.222;2024-01-07T15:05:01;99996.59;;;12.10;100.00
32324;BME280;25666;44.350;9.222;2024-01-07T15:07:26;99995.72;;;12.03;100.00
32324;BME280;25666;44.350;9.222;2024-01-07T15:09:52;99994.25;;;12.16;100.00
32324;BME280;25666;44.350;9.222;2024-01-07T15:12:18;100004.59;;;12.15;100.00
32324;BME280;25666;44.350;9.222;2024-01-07T15:14:47;100009.78;;;12.13;100.00
32324;BME280;25666;44.350;9.222;2024-01-07T15:17:16;100011.25;;;12.04;100.00
32324;BME280;25666;44.350;9.222;2024-01-07T15:19:45;100004.94;;;12.10;100.00
32324;BME280;25666;44.350;9.222;2024-01-07T15:22:11;100007.63;;;12.03;100.00
32324;BME280;25666;44.350;9.222;2024-01-07T15:24:38;100017.53;;;11.97;100.00
32324;BME280;25666;44.350;9.222;2024-01-07T15:27:04;100020.19;;;11.87;100.00
32324;BME280;25666;44.350;9.222;2024-01-07T15:29:32;100032.38;;;11.78;100.00
32324;BME280;25666;44.350;9.222;2024-01-07T15:31:58;100026.56;;;11.87;100.00
32324;BME280;25666;44.350;9.222;2024-01-07T15:34:23;100026.81;;;11.78;100.00
32324;BME280;25666;44.350;9.222;2024-01-07T15:36:49;100025.25;;;11.81;100.00
32324;BME280;25666;44.350;9.222;2024-01-07T15:39:14;100034.41;;;11.81;100.00
32324;BME280;25666;44.350;9.222;2024-01-07T15:41:40;100032.31;;;11.71;100.00
32324;BME280;25666;44.350;9.222;2024-01-07T15:44:05;100033.13;;;11.75;100.00
32324;BME280;25666;44.350;9.222;2024-01-07T15:46:31;100053.66;;;11.64;100.00
32324;BME280;25666;44.350;9.222;2024-01-07T15:48:56;100040.38;;;11.80;100.00
32324;BME280;25666;44.350;9.222;2024-01-07T15:51:22;100041.50;;;11.75;100.00
32324;BME280;25666;44.350;9.222;2024-01-07T15:53:48;100051.53;;;11.80;100.00
32324;BME280;25666;44.350;9.222;2024-01-07T15:56:13;100051.91;;;11.78;100.00
32324;BME280;25666;44.350;9.222;2024-01-07T15:58:42;100052.72;;;11.79;100.00
32324;BME280;25666;44.350;9.222;2024-01-07T16:01:07;100058.69;;;11.77;100.00
32324;BME280;25666;44.350;9.222;2024-01-07T16:03:33;100072.69;;;11.58;100.00
32324;BME280;25666;44.350;9.222;2024-01-07T16:06:02;100068.22;;;11.54;100.00
32324;BME280;25666;44.350;9.222;2024-01-07T16:08:28;100075.09;;;11.37;100.00
32324;BME280;25666;44.350;9.222;2024-01-07T16:10:55;100072.75;;;11.39;100.00
32324;BME280;25666;44.350;9.222;2024-01-07T16:13:20;100076.63;;;11.35;100.00
32324;BME280;25666;44.350;9.222;2024-01-07T16:15:46;100073.38;;;11.29;100.00
32324;BME280;25666;44.350;9.222;2024-01-07T16:18:12;100072.38;;;11.18;100.00
32324;BME280;25666;44.350;9.222;2024-01-07T16:20:37;100078.06;;;11.02;100.00
32324;BME280;25666;44.350;9.222;2024-01-07T16:23:06;100076.41;;;10.79;100.00
32324;BME280;25666;44.350;9.222;2024-01-07T16:25:32;100088.69;;;10.77;100.00
32324;BME280;25666;44.350;9.222;2024-01-07T16:27:57;100080.66;;;10.53;100.00
32324;BME280;25666;44.350;9.222;2024-01-07T16:30:27;100083.44;;;10.53;100.00
32324;BME280;25666;44.350;9.222;2024-01-07T16:32:53;100084.53;;;10.30;100.00
32324;BME280;25666;44.350;9.222;2024-01-07T16:35:20;100100.09;;;10.34;100.00
32324;BME280;25666;44.350;9.222;2024-01-07T16:37:46;100097.28;;;10.50;100.00
32324;BME280;25666;44.350;9.222;2024-01-07T16:40:11;100100.63;;;10.59;100.00
32324;BME280;25666;44.350;9.222;2024-01-07T16:42:38;100101.09;;;10.42;100.00
32324;BME280;25666;44.350;9.222;2024-01-07T16:45:04;100106.25;;;10.43;100.00
32324;BME280;25666;44.350;9.222;2024-01-07T16:47:30;100100.06;;;10.50;100.00
32324;BME280;25666;44.350;9.222;2024-01-07T16:49:56;100108.94;;;10.55;100.00
32324;BME280;25666;44.350;9.222;2024-01-07T16:52:21;100112.44;;;10.52;100.00
32324;BME280;25666;44.350;9.222;2024-01-07T16:54:47;100115.66;;;10.54;100.00
32324;BME280;25666;44.350;9.222;2024-01-07T16:57:14;100113.84;;;10.43;100.00
32324;BME280;25666;44.350;9.222;2024-01-07T16:59:40;100115.66;;;10.35;100.00
32324;BME280;25666;44.350;9.222;2024-01-07T17:02:08;100120.00;;;10.01;100.00
32324;BME280;25666;44.350;9.222;2024-01-07T17:04:33;100115.16;;;10.14;100.00
32324;BME280;25666;44.350;9.222;2024-01-07T17:07:01;100107.84;;;10.25;100.00
32324;BME280;25666;44.350;9.222;2024-01-07T17:09:27;100113.88;;;10.27;100.00
32324;BME280;25666;44.350;9.222;2024-01-07T17:11:52;100109.78;;;10.40;100.00
32324;BME280;25666;44.350;9.222;2024-01-07T17:14:18;100116.97;;;10.41;100.00
32324;BME280;25666;44.350;9.222;2024-01-07T17:16:43;100116.31;;;10.48;100.00
32324;BME280;25666;44.350;9.222;2024-01-07T17:19:10;100113.88;;;10.46;100.00
32324;BME280;25666;44.350;9.222;2024-01-07T17:21:36;100118.53;;;10.58;100.00
32324;BME280;25666;44.350;9.222;2024-01-07T17:24:01;100120.00;;;10.52;100.00
32324;BME280;25666;44.350;9.222;2024-01-07T17:26:27;100117.28;;;10.55;100.00
32324;BME280;25666;44.350;9.222;2024-01-07T17:28:55;100121.00;;;10.63;100.00
32324;BME280;25666;44.350;9.222;2024-01-07T17:31:21;100123.78;;;10.63;100.00
32324;BME280;25666;44.350;9.222;2024-01-07T17:33:47;100122.56;;;10.60;100.00
32324;BME280;25666;44.350;9.222;2024-01-07T17:36:12;100122.03;;;10.55;100.00
32324;BME280;25666;44.350;9.222;2024-01-07T17:38:43;100130.59;;;10.65;100.00
32324;BME280;25666;44.350;9.222;2024-01-07T17:41:09;100125.09;;;10.69;100.00
32324;BME280;25666;44.350;9.222;2024-01-07T17:43:37;100120.41;;;10.54;100.00
32324;BME280;25666;44.350;9.222;2024-01-07T17:46:07;100125.47;;;10.48;100.00
32324;BME280;25666;44.350;9.222;2024-01-07T17:48:33;100126.66;;;10.66;100.00
32324;BME280;25666;44.350;9.222;2024-01-07T17:50:58;100128.28;;;10.67;100.00
32324;BME280;25666;44.350;9.222;2024-01-07T17:53:29;100132.81;;;10.75;100.00
32324;BME280;25666;44.350;9.222;2024-01-07T17:55:54;100139.53;;;10.74;100.00
32324;BME280;25666;44.350;9.222;2024-01-07T17:58:20;100132.06;;;10.79;100.00
32324;BME280;25666;44.350;9.222;2024-01-07T18:00:45;100139.69;;;10.82;100.00
32324;BME280;25666;44.350;9.222;2024-01-07T18:03:12;100140.50;;;10.82;100.00
32324;BME280;25666;44.350;9.222;2024-01-07T18:05:38;100146.44;;;10.81;100.00
32324;BME280;25666;44.350;9.222;2024-01-07T18:08:03;100144.25;;;10.70;100.00
32324;BME280;25666;44.350;9.222;2024-01-07T18:10:29;100153.66;;;10.66;100.00
32324;BME280;25666;44.350;9.222;2024-01-07T18:12:56;100152.84;;;10.65;100.00
32324;BME280;25666;44.350;9.222;2024-01-07T18:15:21;100160.84;;;10.67;100.00
32324;BME280;25666;44.350;9.222;2024-01-07T18:17:47;100163.34;;;10.91;100.00
32324;BME280;25666;44.350;9.222;2024-01-07T18:20:13;100153.44;;;10.94;100.00
32324;BME280;25666;44.350;9.222;2024-01-07T18:22:40;100165.63;;;10.86;100.00
32324;BME280;25666;44.350;9.222;2024-01-07T18:25:06;100172.94;;;10.94;100.00
32324;BME280;25666;44.350;9.222;2024-01-07T18:27:32;100161.97;;;11.01;100.00
32324;BME280;25666;44.350;9.222;2024-01-07T18:29:58;100172.59;;;10.95;100.00
32324;BME280;25666;44.350;9.222;2024-01-07T18:32:25;100166.44;;;10.86;100.00
32324;BME280;25666;44.350;9.222;2024-01-07T18:34:51;100175.59;;;10.87;100.00
32324;BME280;25666;44.350;9.222;2024-01-07T18:37:17;100175.00;;;10.97;100.00
32324;BME280;25666;44.350;9.222;2024-01-07T18:39:47;100184.09;;;10.94;100.00
32324;BME280;25666;44.350;9.222;2024-01-07T18:42:12;100173.16;;;11.04;100.00
32324;BME280;25666;44.350;9.222;2024-01-07T18:44:38;100173.91;;;10.82;100.00
32324;BME280;25666;44.350;9.222;2024-01-07T18:47:04;100171.13;;;10.82;100.00
32324;BME280;25666;44.350;9.222;2024-01-07T18:49:30;100183.06;;;10.83;100.00
32324;BME280;25666;44.350;9.222;2024-01-07T18:51:55;100188.41;;;10.91;100.00
32324;BME280;25666;44.350;9.222;2024-01-07T18:54:21;100186.13;;;10.97;100.00
32324;BME280;25666;44.350;9.222;2024-01-07T18:56:47;100191.19;;;10.91;100.00
32324;BME280;25666;44.350;9.222;2024-01-07T18:59:13;100192.91;;;10.96;100.00
32324;BME280;25666;44.350;9.222;2024-01-07T19:01:39;100201.84;;;11.05;100.00
32324;BME280;25666;44.350;9.222;2024-01-07T19:04:05;100186.94;;;10.97;100.00
32324;BME280;25666;44.350;9.222;2024-01-07T19:06:31;100190.38;;;10.91;100.00
32324;BME280;25666;44.350;9.222;2024-01-07T19:08:57;100194.13;;;10.79;100.00
32324;BME280;25666;44.350;9.222;2024-01-07T19:11:22;100194.63;;;10.85;100.00
32324;BME280;25666;44.350;9.222;2024-01-07T19:13:48;100205.63;;;10.97;100.00
32324;BME280;25666;44.350;9.222;2024-01-07T19:16:14;100204.03;;;10.96;100.00
32324;BME280;25666;44.350;9.222;2024-01-07T19:18:41;100209.22;;;10.97;100.00
32324;BME280;25666;44.350;9.222;2024-01-07T19:21:16;100220.34;;;10.97;100.00
32324;BME280;25666;44.350;9.222;2024-01-07T19:23:42;100215.59;;;10.98;100.00
32324;BME280;25666;44.350;9.222;2024-01-07T19:26:10;100214.06;;;11.00;100.00
32324;BME280;25666;44.350;9.222;2024-01-07T19:28:36;100216.25;;;10.91;100.00
32324;BME280;25666;44.350;9.222;2024-01-07T19:31:02;100221.09;;;10.94;100.00
32324;BME280;25666;44.350;9.222;2024-01-07T19:33:29;100216.75;;;10.77;100.00
32324;BME280;25666;44.350;9.222;2024-01-07T19:35:55;100223.50;;;10.77;100.00
32324;BME280;25666;44.350;9.222;2024-01-07T19:38:20;100223.59;;;10.80;100.00
32324;BME280;25666;44.350;9.222;2024-01-07T19:40:47;100226.50;;;10.68;100.00
32324;BME280;25666;44.350;9.222;2024-01-07T19:43:12;100228.81;;;10.66;100.00
32324;BME280;25666;44.350;9.222;2024-01-07T19:45:39;100224.78;;;10.63;100.00
32324;BME280;25666;44.350;9.222;2024-01-07T19:48:06;100221.75;;;10.53;100.00
32324;BME280;25666;44.350;9.222;2024-01-07T19:50:35;100231.72;;;10.54;100.00
32324;BME280;25666;44.350;9.222;2024-01-07T19:53:00;100236.41;;;10.50;100.00
32324;BME280;25666;44.350;9.222;2024-01-07T19:55:26;100230.47;;;10.51;100.00
32324;BME280;25666;44.350;9.222;2024-01-07T19:57:52;100239.19;;;10.50;100.00
32324;BME280;25666;44.350;9.222;2024-01-07T20:00:18;100237.59;;;10.33;100.00
32324;BME280;25666;44.350;9.222;2024-01-07T20:02:44;100231.88;;;10.26;100.00
32324;BME280;25666;44.350;9.222;2024-01-07T20:05:15;100247.00;;;10.44;100.00
32324;BME280;25666;44.350;9.222;2024-01-07T20:07:41;100237.50;;;10.45;100.00
32324;BME280;25666;44.350;9.222;2024-01-07T20:10:08;100248.41;;;10.54;100.00
32324;BME280;25666;44.350;9.222;2024-01-07T20:12:33;100243.28;;;10.56;100.00
32324;BME280;25666;44.350;9.222;2024-01-07T20:14:59;100247.50;;;10.65;100.00
32324;BME280;25666;44.350;9.222;2024-01-07T20:17:25;100246.50;;;10.73;100.00
32324;BME280;25666;44.350;9.222;2024-01-07T20:19:50;100251.97;;;10.70;100.00
32324;BME280;25666;44.350;9.222;2024-01-07T20:22:16;100254.03;;;10.73;100.00
32324;BME280;25666;44.350;9.222;2024-01-07T20:24:42;100249.06;;;10.82;100.00
32324;BME280;25666;44.350;9.222;2024-01-07T20:27:08;100256.19;;;10.80;100.00
32324;BME280;25666;44.350;9.222;2024-01-07T20:29:34;100256.75;;;10.69;100.00
32324;BME280;25666;44.350;9.222;2024-01-07T20:32:03;100268.16;;;10.64;100.00
32324;BME280;25666;44.350;9.222;2024-01-07T20:34:29;100267.78;;;10.66;100.00
32324;BME280;25666;44.350;9.222;2024-01-07T20:36:54;100260.41;;;10.73;100.00
32324;BME280;25666;44.350;9.222;2024-01-07T20:39:20;100265.53;;;10.71;100.00
32324;BME280;25666;44.350;9.222;2024-01-07T20:41:46;100263.72;;;10.79;100.00
32324;BME280;25666;44.350;9.222;2024-01-07T20:44:14;100257.34;;;10.79;100.00
32324;BME280;25666;44.350;9.222;2024-01-07T20:46:39;100257.13;;;10.87;100.00
32324;BME280;25666;44.350;9.222;2024-01-07T20:49:05;100265.81;;;10.66;100.00
32324;BME280;25666;44.350;9.222;2024-01-07T20:51:31;100262.50;;;10.61;100.00
32324;BME280;25666;44.350;9.222;2024-01-07T20:53:56;100262.69;;;10.68;100.00
32324;BME280;25666;44.350;9.222;2024-01-07T20:56:22;100268.03;;;10.77;100.00
32324;BME280;25666;44.350;9.222;2024-01-07T20:58:48;100272.88;;;10.80;100.00
32324;BME280;25666;44.350;9.222;2024-01-07T21:01:13;100262.69;;;10.87;100.00
32324;BME280;25666;44.350;9.222;2024-01-07T21:03:39;100275.09;;;10.90;100.00
32324;BME280;25666;44.350;9.222;2024-01-07T21:06:04;100279.94;;;10.93;100.00
32324;BME280;25666;44.350;9.222;2024-01-07T21:08:30;100280.13;;;10.84;100.00